sensor_id;sensor_type;location;lat;lon;timestamp;temperature;humidity
58513;DHT22;44302;47.914;10.642;2023-04-16T06:22:24;4.00;99.90
58513;DHT22;44302;47.914;10.642;2023-04-16T07:19:05;4.20;99.90
58513;DHT22;44302;47.914;10.642;2023-04-16T07:23:45;4.00;99.90
58513;DHT22;44302;47.914;10.642;2023-04-16T07:28:35;4.00;99.90
58513;DHT22;44302;47.914;10.642;2023-04-16T07:33:06;4.20;99.90
58513;DHT22;44302;47.914;10.642;2023-04-16T07:37:44;4.20;99.90
58513;DHT22;44302;47.914;10.642;2023-04-16T07:53:20;4.40;99.90
58513;DHT22;44302;47.914;10.642;2023-04-16T07:57:32;4.20;99.90
58513;DHT22;44302;47.914;10.642;2023-04-16T08:01:10;4.20;99.90
58513;DHT22;44302;47.914;10.642;2023-04-16T08:05:11;4.50;99.90
58513;DHT22;44302;47.914;10.642;2023-04-16T08:13:17;4.20;99.90
58513;DHT22;44302;47.914;10.642;2023-04-16T08:17:19;4.70;99.90
58513;DHT22;44302;47.914;10.642;2023-04-16T08:21:08;4.60;99.90
58513;DHT22;44302;47.914;10.642;2023-04-16T08:28:57;4.60;99.90
58513;DHT22;44302;47.914;10.642;2023-04-16T08:31:23;4.60;99.90
58513;DHT22;44302;47.914;10.642;2023-04-16T08:35:56;4.70;99.90
58513;DHT22;44302;47.914;10.642;2023-04-16T08:38:21;4.80;99.90
58513;DHT22;44302;47.914;10.642;2023-04-16T08:41:57;4.80;99.90
58513;DHT22;44302;47.914;10.642;2023-04-16T08:44:26;4.80;99.90
58513;DHT22;44302;47.914;10.642;2023-04-16T08:46:53;4.90;99.90
58513;DHT22;44302;47.914;10.642;2023-04-16T08:49:24;4.80;99.90
58513;DHT22;44302;47.914;10.642;2023-04-16T08:51:52;4.80;99.90
58513;DHT22;44302;47.914;10.642;2023-04-16T08:57:05;4.70;99.90
58513;DHT22;44302;47.914;10.642;2023-04-16T08:59:32;4.80;99.90
58513;DHT22;44302;47.914;10.642;2023-04-16T09:01:59;4.90;99.90
58513;DHT22;44302;47.914;10.642;2023-04-16T09:04:27;5.00;99.90
58513;DHT22;44302;47.914;10.642;2023-04-16T09:06:54;5.00;99.90
58513;DHT22;44302;47.914;10.642;2023-04-16T09:09:21;5.10;99.90
58513;DHT22;44302;47.914;10.642;2023-04-16T09:11:50;4.90;99.90
58513;DHT22;44302;47.914;10.642;2023-04-16T09:14:17;4.80;99.90
58513;DHT22;44302;47.914;10.642;2023-04-16T09:16:43;4.80;99.90
58513;DHT22;44302;47.914;10.642;2023-04-16T09:19:09;4.80;99.90
58513;DHT22;44302;47.914;10.642;2023-04-16T09:21:35;4.80;99.90
58513;DHT22;44302;47.914;10.642;2023-04-16T09:24:02;4.70;99.90
58513;DHT22;44302;47.914;10.642;2023-04-16T09:26:28;4.80;99.90
58513;DHT22;44302;47.914;10.642;2023-04-16T09:28:54;4.90;99.90
58513;DHT22;44302;47.914;10.642;2023-04-16T09:31:20;4.90;99.90
58513;DHT22;44302;47.914;10.642;2023-04-16T09:34:27;4.90;99.90
58513;DHT22;44302;47.914;10.642;2023-04-16T09:39:17;5.00;99.90
58513;DHT22;44302;47.914;10.642;2023-04-16T09:41:44;5.10;99.90
58513;DHT22;44302;47.914;10.642;2023-04-16T09:46:15;5.20;99.90
58513;DHT22;44302;47.914;10.642;2023-04-16T09:50:17;5.20;99.90
58513;DHT22;44302;47.914;10.642;2023-04-16T09:52:46;5.20;99.90
58513;DHT22;44302;47.914;10.642;2023-04-16T09:57:12;5.20;99.90
58513;DHT22;44302;47.914;10.642;2023-04-16T09:59:38;5.20;99.90
58513;DHT22;44302;47.914;10.642;2023-04-16T10:02:03;5.30;99.90
58513;DHT22;44302;47.914;10.642;2023-04-16T10:04:45;5.30;99.90
58513;DHT22;44302;47.914;10.642;2023-04-16T10:07:11;5.30;99.90
58513;DHT22;44302;47.914;10.642;2023-04-16T10:09:38;5.30;99.90
58513;DHT22;44302;47.914;10.642;2023-04-16T10:12:04;5.40;99.90
58513;DHT22;44302;47.914;10.642;2023-04-16T10:14:31;5.40;99.90
58513;DHT22;44302;47.914;10.642;2023-04-16T10:19:26;5.30;99.90
58513;DHT22;44302;47.914;10.642;2023-04-16T10:21:52;5.40;99.90
58513;DHT22;44302;47.914;10.642;2023-04-16T10:24:19;5.40;99.90
58513;DHT22;44302;47.914;10.642;2023-04-16T10:26:46;5.50;99.90
58513;DHT22;44302;47.914;10.642;2023-04-16T10:29:13;5.60;99.90
58513;DHT22;44302;47.914;10.642;2023-04-16T10:34:07;5.70;99.90
58513;DHT22;44302;47.914;10.642;2023-04-16T10:36:36;5.60;99.90
58513;DHT22;44302;47.914;10.642;2023-04-16T10:39:02;5.60;99.90
58513;DHT22;44302;47.914;10.642;2023-04-16T10:41:30;5.70;99.90
58513;DHT22;44302;47.914;10.642;2023-04-16T10:44:04;5.70;99.90
58513;DHT22;44302;47.914;10.642;2023-04-16T10:46:36;5.70;99.90
58513;DHT22;44302;47.914;10.642;2023-04-16T10:51:38;5.70;99.90
58513;DHT22;44302;47.914;10.642;2023-04-16T10:54:23;5.80;99.90
58513;DHT22;44302;47.914;10.642;2023-04-16T10:56:50;5.80;99.90
58513;DHT22;44302;47.914;10.642;2023-04-16T10:59:20;5.90;99.90
58513;DHT22;44302;47.914;10.642;2023-04-16T11:04:00;5.70;99.90
58513;DHT22;44302;47.914;10.642;2023-04-16T11:08:14;5.70;99.90
58513;DHT22;44302;47.914;10.642;2023-04-16T11:11:49;5.70;99.90
58513;DHT22;44302;47.914;10.642;2023-04-16T11:15:56;5.80;99.90
58513;DHT22;44302;47.914;10.642;2023-04-16T11:19:41;5.90;99.90
58513;DHT22;44302;47.914;10.642;2023-04-16T11:23:48;5.90;99.90
58513;DHT22;44302;47.914;10.642;2023-04-16T11:28:39;5.90;99.90
58513;DHT22;44302;47.914;10.642;2023-04-16T11:33:32;6.00;99.90
58513;DHT22;44302;47.914;10.642;2023-04-16T11:35:58;6.00;99.90
58513;DHT22;44302;47.914;10.642;2023-04-16T11:40:34;5.90;99.90
58513;DHT22;44302;47.914;10.642;2023-04-16T11:43:20;6.00;99.90
58513;DHT22;44302;47.914;10.642;2023-04-16T11:46:40;5.90;99.90
58513;DHT22;44302;47.914;10.642;2023-04-16T11:51:02;5.90;99.90
58513;DHT22;44302;47.914;10.642;2023-04-16T11:55:44;5.90;99.90
58513;DHT22;44302;47.914;10.642;2023-04-16T11:59:52;6.00;99.90
58513;DHT22;44302;47.914;10.642;2023-04-16T12:03:41;6.10;99.90
58513;DHT22;44302;47.914;10.642;2023-04-16T12:06:10;6.10;99.90
58513;DHT22;44302;47.914;10.642;2023-04-16T12:10:55;6.10;99.90
58513;DHT22;44302;47.914;10.642;2023-04-16T12:15:51;6.10;99.90
58513;DHT22;44302;47.914;10.642;2023-04-16T12:19:02;6.10;99.90
58513;DHT22;44302;47.914;10.642;2023-04-16T12:23:29;6.00;99.90
58513;DHT22;44302;47.914;10.642;2023-04-16T12:27:25;6.10;99.90
58513;DHT22;44302;47.914;10.642;2023-04-16T12:31:37;6.20;99.90
58513;DHT22;44302;47.914;10.642;2023-04-16T12:36:17;6.20;99.90
58513;DHT22;44302;47.914;10.642;2023-04-16T12:41:24;6.20;99.90
58513;DHT22;44302;47.914;10.642;2023-04-16T12:59:30;6.50;99.90
58513;DHT22;44302;47.914;10.642;2023-04-16T13:03:26;6.50;99.90
58513;DHT22;44302;47.914;10.642;2023-04-16T13:07:59;6.60;99.90
58513;DHT22;44302;47.914;10.642;2023-04-16T13:12:34;6.50;99.90
58513;DHT22;44302;47.914;10.642;2023-04-16T13:16:52;6.50;99.90
58513;DHT22;44302;47.914;10.642;2023-04-16T13:30:00;6.50;99.90
58513;DHT22;44302;47.914;10.642;2023-04-16T13:34:40;6.50;99.90
58513;DHT22;44302;47.914;10.642;2023-04-16T13:38:03;6.50;99.90
58513;DHT22;44302;47.914;10.642;2023-04-16T13:42:03;6.60;99.90
58513;DHT22;44302;47.914;10.642;2023-04-16T13:45:56;6.60;99.90
58513;DHT22;44302;47.914;10.642;2023-04-16T13:48:22;6.70;99.90
58513;DHT22;44302;47.914;10.642;2023-04-16T13:50:47;6.70;99.90
58513;DHT22;44302;47.914;10.642;2023-04-16T13:53:13;6.80;99.90
58513;DHT22;44302;47.914;10.642;2023-04-16T13:55:39;6.80;99.90
58513;DHT22;44302;47.914;10.642;2023-04-16T13:58:04;6.80;99.90
58513;DHT22;44302;47.914;10.642;2023-04-16T14:00:31;6.80;99.90
58513;DHT22;44302;47.914;10.642;2023-04-16T14:02:57;6.90;99.90
58513;DHT22;44302;47.914;10.642;2023-04-16T14:05:22;7.00;99.90
58513;DHT22;44302;47.914;10.642;2023-04-16T14:07:48;7.00;99.90
58513;DHT22;44302;47.914;10.642;2023-04-16T14:10:14;7.10;99.90
58513;DHT22;44302;47.914;10.642;2023-04-16T14:12:41;7.10;99.90
58513;DHT22;44302;47.914;10.642;2023-04-16T14:15:07;7.10;99.90
58513;DHT22;44302;47.914;10.642;2023-04-16T14:20:55;7.00;99.90
58513;DHT22;44302;47.914;10.642;2023-04-16T14:23:22;6.90;99.90
58513;DHT22;44302;47.914;10.642;2023-04-16T14:26:23;6.90;99.90
58513;DHT22;44302;47.914;10.642;2023-04-16T14:31:03;6.80;99.90
58513;DHT22;44302;47.914;10.642;2023-04-16T14:36:17;7.10;99.90
58513;DHT22;44302;47.914;10.642;2023-04-16T14:43:10;7.00;99.90
58513;DHT22;44302;47.914;10.642;2023-04-16T14:50:01;6.80;99.90
58513;DHT22;44302;47.914;10.642;2023-04-16T14:57:45;7.10;99.90
58513;DHT22;44302;47.914;10.642;2023-04-16T15:02:53;6.80;99.90
